Terminal Aerodrome Forecast
Issued by NWS Jackson, KY

Home | Current Version | Previous Version | Text Only | Print | Product List | Glossary On
Versions: 1 2 3 4 5 6 7 8 9 10 11 12 13 14
000
FTUS43 KJKL 280700 AAB
TAFJKL
TAF AMD
KJKL 280730Z 2808/2906 25005KT 2SM -RA BR BKN004 OVC007
     FM281400 29004KT 3SM -RA BR BKN004 OVC010
     FM281800 33004KT 4SM -RA BR OVC006=

USA.gov is the U.S. government's official web portal to all federal, state and local government web resources and services.